createdAt,value
2023-05-10T00:00:05.640Z,0.83
2023-05-10T00:01:05.639Z,0.81
2023-05-10T00:02:05.722Z,0.82
2023-05-10T00:03:05.754Z,0.81
2023-05-10T00:04:05.767Z,0.82
2023-05-10T00:05:05.681Z,0.82
2023-05-10T00:06:05.677Z,0.82
2023-05-10T00:07:05.667Z,0.83
2023-05-10T00:08:05.670Z,0.83
2023-05-10T00:09:05.648Z,0.81
2023-05-10T00:10:05.632Z,0.85
2023-05-10T00:11:05.623Z,0.85
2023-05-10T00:12:05.609Z,0.84
2023-05-10T00:13:05.632Z,0.82
2023-05-10T00:14:05.574Z,0.84
2023-05-10T00:15:05.564Z,0.82
2023-05-10T00:16:05.562Z,0.84
2023-05-10T00:17:05.533Z,0.81
2023-05-10T00:18:05.597Z,0.81
2023-05-10T00:19:05.522Z,0.81
2023-05-10T00:20:05.573Z,0.81
2023-05-10T00:21:05.484Z,0.82
2023-05-10T00:22:05.475Z,0.80
2023-05-10T00:23:05.462Z,0.83
2023-05-10T00:24:05.441Z,0.82
2023-05-10T00:25:05.434Z,0.82
2023-05-10T00:26:05.431Z,0.81
2023-05-10T00:27:05.404Z,0.81
2023-05-10T00:28:05.408Z,0.82
2023-05-10T00:29:05.374Z,0.81
2023-05-10T00:30:05.380Z,0.81
2023-05-10T00:31:05.361Z,0.81
2023-05-10T00:32:05.369Z,0.81
2023-05-10T00:33:05.391Z,0.82
2023-05-10T00:34:05.320Z,0.83
2023-05-10T00:35:05.331Z,0.82
2023-05-10T00:36:05.334Z,0.81
2023-05-10T00:37:05.290Z,0.82
2023-05-10T00:38:05.279Z,0.80
2023-05-10T00:39:05.262Z,0.82
2023-05-10T00:40:05.261Z,0.82
2023-05-10T00:41:05.234Z,0.82
2023-05-10T00:42:05.239Z,0.82
2023-05-10T00:43:05.228Z,0.82
2023-05-10T00:44:05.212Z,0.81
2023-05-10T00:45:05.197Z,0.78
2023-05-10T00:46:05.250Z,0.80
2023-05-10T00:47:05.170Z,0.80
2023-05-10T00:48:05.375Z,0.81
2023-05-10T00:49:05.151Z,0.81
2023-05-10T00:50:05.139Z,0.77
2023-05-10T00:51:05.140Z,0.79
2023-05-10T00:52:05.106Z,0.79
2023-05-10T00:53:05.100Z,0.79
2023-05-10T00:54:05.099Z,0.79
2023-05-10T00:55:05.082Z,0.79
2023-05-10T00:56:05.080Z,0.79
2023-05-10T00:57:05.060Z,0.79
2023-05-10T00:58:05.051Z,0.76
2023-05-10T00:59:05.102Z,0.79
2023-05-10T01:00:05.100Z,0.78
2023-05-10T01:01:05.171Z,0.77
2023-05-10T01:02:05.199Z,0.77
2023-05-10T01:03:05.243Z,0.77
2023-05-10T01:04:05.195Z,0.79
2023-05-10T01:05:05.231Z,0.77
2023-05-10T01:06:05.238Z,0.76
2023-05-10T01:07:05.268Z,0.78
2023-05-10T01:08:05.314Z,0.77
2023-05-10T01:09:05.327Z,0.77
2023-05-10T01:10:05.318Z,0.78
2023-05-10T01:11:05.276Z,0.78
2023-05-10T01:12:05.317Z,0.78
2023-05-10T01:13:05.341Z,0.76
2023-05-10T01:14:05.272Z,0.78
2023-05-10T01:15:05.240Z,0.75
2023-05-10T01:16:05.262Z,0.75
2023-05-10T01:17:05.209Z,0.78
2023-05-10T01:18:05.210Z,0.78
2023-05-10T01:19:05.192Z,0.79
2023-05-10T01:20:05.200Z,0.77
2023-05-10T01:21:05.172Z,0.77
2023-05-10T01:22:05.160Z,0.78
2023-05-10T01:23:05.149Z,0.77
2023-05-10T01:24:05.139Z,0.75
2023-05-10T01:25:05.134Z,0.75
2023-05-10T01:26:05.107Z,0.75
2023-05-10T01:27:05.135Z,0.75
2023-05-10T01:28:05.174Z,0.73
2023-05-10T01:29:05.228Z,0.74
2023-05-10T01:30:13.983Z,0.74
2023-05-10T01:31:06.313Z,0.74
2023-05-10T01:32:05.208Z,0.74
2023-05-10T01:33:05.242Z,0.75
2023-05-10T01:34:05.183Z,0.74
2023-05-10T01:35:05.176Z,0.73
2023-05-10T01:36:05.169Z,0.74
2023-05-10T01:37:05.174Z,0.72
2023-05-10T01:38:05.152Z,0.73
2023-05-10T01:39:05.126Z,0.73
2023-05-10T01:40:05.165Z,0.72
2023-05-10T01:41:05.093Z,0.75
2023-05-10T01:42:05.093Z,0.74
2023-05-10T01:43:05.088Z,0.74
2023-05-10T01:44:05.084Z,0.75
2023-05-10T01:45:05.061Z,0.74
2023-05-10T01:46:05.061Z,0.76
2023-05-10T01:47:05.121Z,0.72
2023-05-10T01:48:05.170Z,0.76
2023-05-10T01:49:05.141Z,0.76
2023-05-10T01:50:05.171Z,0.76
2023-05-10T01:51:05.230Z,0.74
2023-05-10T01:52:05.242Z,0.76
2023-05-10T01:53:05.270Z,0.74
2023-05-10T01:54:05.306Z,0.72
2023-05-10T01:55:05.339Z,0.76
2023-05-10T01:56:05.377Z,0.76
2023-05-10T01:57:05.404Z,0.75
2023-05-10T01:58:05.430Z,0.74
2023-05-10T01:59:05.473Z,0.74
2023-05-10T02:00:05.502Z,0.76
2023-05-10T02:01:05.576Z,0.74
2023-05-10T02:02:05.569Z,0.73
2023-05-10T02:03:05.675Z,0.74
2023-05-10T02:04:05.755Z,0.74
2023-05-10T02:05:05.684Z,0.74
2023-05-10T02:06:05.695Z,0.73
2023-05-10T02:07:05.690Z,0.73
2023-05-10T02:08:05.679Z,0.72
2023-05-10T02:09:05.679Z,0.73
2023-05-10T02:10:05.671Z,0.73
2023-05-10T02:11:05.653Z,0.75
2023-05-10T02:12:05.657Z,0.72
2023-05-10T02:13:05.688Z,0.74
2023-05-10T02:14:05.651Z,0.75
2023-05-10T02:15:05.636Z,0.75
2023-05-10T02:16:05.679Z,0.75
2023-05-10T02:17:05.612Z,0.76
2023-05-10T02:18:05.653Z,0.75
2023-05-10T02:19:05.592Z,0.74
2023-05-10T02:20:05.588Z,0.73
2023-05-10T02:21:05.571Z,0.76
2023-05-10T02:22:05.608Z,0.74
2023-05-10T02:23:05.661Z,0.74
2023-05-10T02:24:05.714Z,0.75
2023-05-10T02:25:05.758Z,0.74
2023-05-10T02:26:05.811Z,0.75
2023-05-10T02:27:05.854Z,0.73
2023-05-10T02:28:05.901Z,0.75
2023-05-10T02:29:05.948Z,0.74
2023-05-10T02:30:05.992Z,0.75
2023-05-10T02:31:06.054Z,0.73
2023-05-10T02:32:06.126Z,0.75
2023-05-10T02:33:06.189Z,0.75
2023-05-10T02:34:06.205Z,0.74
2023-05-10T02:35:06.242Z,0.74
2023-05-10T02:36:06.288Z,0.74
2023-05-10T02:37:06.341Z,0.75
2023-05-10T02:38:06.384Z,0.76
2023-05-10T02:39:06.444Z,0.74
2023-05-10T02:40:06.492Z,0.75
2023-05-10T02:41:06.550Z,0.75
2023-05-10T02:42:06.595Z,0.75
2023-05-10T02:43:06.640Z,0.76
2023-05-10T02:44:06.686Z,0.76
2023-05-10T02:45:06.744Z,0.77
2023-05-10T02:46:06.806Z,0.75
2023-05-10T02:47:06.853Z,0.74
2023-05-10T02:48:06.925Z,0.75
2023-05-10T02:49:06.946Z,0.75
2023-05-10T02:50:06.982Z,0.75
2023-05-10T02:51:07.046Z,0.74
2023-05-10T02:52:07.096Z,0.74
2023-05-10T02:53:07.151Z,0.74
2023-05-10T02:54:07.194Z,0.76
2023-05-10T02:55:07.250Z,0.76
2023-05-10T02:56:07.296Z,0.75
2023-05-10T02:57:07.342Z,0.74
2023-05-10T02:58:07.400Z,0.73
2023-05-10T02:59:07.456Z,0.74
2023-05-10T03:00:07.504Z,0.75
2023-05-10T03:01:07.580Z,0.74
2023-05-10T03:02:07.607Z,0.74
2023-05-10T03:03:07.758Z,0.73
2023-05-10T03:04:07.761Z,0.73
2023-05-10T03:05:07.758Z,0.74
2023-05-10T03:06:07.813Z,0.74
2023-05-10T03:07:07.859Z,0.73
2023-05-10T03:08:08.031Z,0.73
2023-05-10T03:09:07.979Z,0.73
2023-05-10T03:10:08.020Z,0.73
2023-05-10T03:11:08.065Z,0.73
2023-05-10T03:12:08.075Z,0.73
2023-05-10T03:13:08.088Z,0.73
2023-05-10T03:14:08.050Z,0.73
2023-05-10T03:15:08.090Z,0.74
2023-05-10T03:16:08.049Z,0.74
2023-05-10T03:17:08.048Z,0.74
2023-05-10T03:18:08.066Z,0.73
2023-05-10T03:19:08.033Z,0.74
2023-05-10T03:20:08.024Z,0.74
2023-05-10T03:21:08.015Z,0.74
2023-05-10T03:22:08.014Z,0.75
2023-05-10T03:23:08.062Z,0.73
2023-05-10T03:24:08.141Z,0.74
2023-05-10T03:25:08.175Z,0.73
2023-05-10T03:26:08.230Z,0.72
2023-05-10T03:27:08.317Z,0.72
2023-05-10T03:28:08.332Z,0.74
2023-05-10T03:29:08.386Z,0.73
2023-05-10T03:30:08.435Z,0.73
2023-05-10T03:31:08.584Z,0.72
2023-05-10T03:32:08.536Z,0.74
2023-05-10T03:33:08.652Z,0.73
2023-05-10T03:34:08.655Z,0.73
2023-05-10T03:35:08.715Z,0.72
2023-05-10T03:36:08.737Z,0.73
2023-05-10T03:37:08.789Z,0.73
2023-05-10T03:38:08.854Z,0.74
2023-05-10T03:39:08.904Z,0.73
2023-05-10T03:40:08.981Z,0.72
2023-05-10T03:41:09.018Z,0.73
2023-05-10T03:42:09.060Z,0.73
2023-05-10T03:43:09.113Z,0.73
2023-05-10T03:44:09.209Z,0.73
2023-05-10T03:45:09.221Z,0.73
2023-05-10T03:46:09.266Z,0.73
2023-05-10T03:47:09.416Z,0.73
2023-05-10T03:48:09.398Z,0.73
2023-05-10T03:49:09.325Z,0.74
2023-05-10T03:50:09.308Z,0.74
2023-05-10T03:51:09.301Z,0.74
2023-05-10T03:52:09.294Z,0.73
2023-05-10T03:53:09.299Z,0.74
2023-05-10T03:54:09.294Z,0.72
2023-05-10T03:55:09.277Z,0.71
2023-05-10T03:56:09.295Z,0.73
2023-05-10T03:57:09.265Z,0.71
2023-05-10T03:58:09.266Z,0.71
2023-05-10T03:59:09.316Z,0.71
2023-05-10T04:00:09.352Z,0.72
2023-05-10T04:01:09.409Z,0.72
2023-05-10T04:02:09.523Z,0.72
2023-05-10T04:03:09.574Z,0.71
2023-05-10T04:04:09.636Z,0.72
2023-05-10T04:05:09.609Z,0.73
2023-05-10T04:06:09.684Z,0.72
2023-05-10T04:07:09.723Z,0.73
2023-05-10T04:08:09.794Z,0.73
2023-05-10T04:09:09.854Z,0.71
2023-05-10T04:10:09.881Z,0.73
2023-05-10T04:11:09.934Z,0.73
2023-05-10T04:12:11.086Z,0.73
2023-05-10T04:13:10.059Z,0.74
2023-05-10T04:14:10.078Z,0.71
2023-05-10T04:15:10.115Z,0.73
2023-05-10T04:16:10.153Z,0.72
2023-05-10T04:17:10.341Z,0.72
2023-05-10T04:18:10.307Z,0.73
2023-05-10T04:19:10.313Z,0.74
2023-05-10T04:20:10.299Z,0.74
2023-05-10T04:21:10.296Z,0.74
2023-05-10T04:22:10.294Z,0.74
2023-05-10T04:23:10.289Z,0.73
2023-05-10T04:24:10.282Z,0.73
2023-05-10T04:25:10.274Z,0.73
2023-05-10T04:26:10.270Z,0.74
2023-05-10T04:27:10.263Z,0.72
2023-05-10T04:28:10.252Z,0.73
2023-05-10T04:29:10.278Z,0.74
2023-05-10T04:30:10.247Z,0.73
2023-05-10T04:31:10.271Z,0.73
2023-05-10T04:32:10.284Z,0.73
2023-05-10T04:33:10.250Z,0.74
2023-05-10T04:34:10.229Z,0.74
2023-05-10T04:35:10.248Z,0.73
2023-05-10T04:36:10.221Z,0.74
2023-05-10T04:37:10.220Z,0.73
2023-05-10T04:38:10.197Z,0.73
2023-05-10T04:39:10.193Z,0.73
2023-05-10T04:40:10.191Z,0.73
2023-05-10T04:41:10.237Z,0.73
2023-05-10T04:42:10.235Z,0.74
2023-05-10T04:43:10.299Z,0.73
2023-05-10T04:44:10.338Z,0.72
2023-05-10T04:45:10.401Z,0.72
2023-05-10T04:46:10.469Z,0.73
2023-05-10T04:47:11.997Z,0.73
2023-05-10T04:48:10.530Z,0.72
2023-05-10T04:49:10.583Z,0.73
2023-05-10T04:50:10.621Z,0.73
2023-05-10T04:51:10.671Z,0.72
2023-05-10T04:52:10.732Z,0.72
2023-05-10T04:53:10.767Z,0.72
2023-05-10T04:54:10.820Z,0.73
2023-05-10T04:55:10.902Z,0.73
2023-05-10T04:56:10.903Z,0.72
2023-05-10T04:57:10.943Z,0.73
2023-05-10T04:58:10.997Z,0.72
2023-05-10T04:59:11.044Z,0.72
2023-05-10T05:00:11.088Z,0.72
2023-05-10T05:01:11.117Z,0.72
2023-05-10T05:02:11.062Z,0.72
2023-05-10T05:03:11.189Z,0.73
2023-05-10T05:04:11.059Z,0.72
2023-05-10T05:05:11.036Z,0.73
2023-05-10T05:06:11.039Z,0.72
2023-05-10T05:07:11.028Z,0.72
2023-05-10T05:08:11.024Z,0.71
2023-05-10T05:09:11.028Z,0.71
2023-05-10T05:10:11.013Z,0.71
2023-05-10T05:11:11.009Z,0.72
2023-05-10T05:12:11.033Z,0.72
2023-05-10T05:13:11.095Z,0.72
2023-05-10T05:14:10.999Z,0.73
2023-05-10T05:15:11.008Z,0.73
2023-05-10T05:16:10.987Z,0.73
2023-05-10T05:17:10.992Z,0.73
2023-05-10T05:18:10.998Z,0.73
2023-05-10T05:19:10.978Z,0.72
2023-05-10T05:20:11.027Z,0.73
2023-05-10T05:21:11.051Z,0.72
2023-05-10T05:22:11.127Z,0.71
2023-05-10T05:23:11.161Z,0.71
2023-05-10T05:24:11.218Z,0.72
2023-05-10T05:25:11.258Z,0.72
2023-05-10T05:26:11.309Z,0.70
2023-05-10T05:27:11.335Z,0.71
2023-05-10T05:28:11.385Z,0.72
2023-05-10T05:29:11.451Z,0.72
2023-05-10T05:30:11.493Z,0.73
2023-05-10T05:31:11.614Z,0.72
2023-05-10T05:32:11.625Z,0.74
2023-05-10T05:33:11.710Z,0.76
2023-05-10T05:34:11.685Z,0.77
2023-05-10T05:35:11.753Z,0.76
2023-05-10T05:36:11.768Z,0.77
2023-05-10T05:37:12.644Z,0.80
2023-05-10T05:38:11.872Z,0.80
2023-05-10T05:39:11.947Z,0.83
2023-05-10T05:40:11.971Z,0.82
2023-05-10T05:41:12.043Z,0.82
2023-05-10T05:42:12.049Z,0.91
2023-05-10T05:43:12.154Z,0.93
2023-05-10T05:44:12.188Z,0.98
2023-05-10T05:45:12.210Z,1.07
2023-05-10T05:46:12.338Z,1.22
2023-05-10T05:47:12.328Z,1.42
2023-05-10T05:48:12.428Z,1.59
2023-05-10T05:49:12.420Z,1.69
2023-05-10T05:50:12.467Z,1.77
2023-05-10T05:51:12.496Z,1.99
2023-05-10T05:52:12.539Z,2.08
2023-05-10T05:53:12.584Z,2.26
2023-05-10T05:54:12.656Z,2.47
2023-05-10T05:55:12.650Z,2.62
2023-05-10T05:56:12.697Z,2.77
2023-05-10T05:57:12.724Z,3.18
2023-05-10T05:58:12.765Z,3.48
2023-05-10T05:59:12.809Z,3.53
2023-05-10T06:00:12.795Z,3.96
2023-05-10T06:01:12.835Z,4.19
2023-05-10T06:02:12.893Z,4.21
2023-05-10T06:03:12.874Z,4.31
2023-05-10T06:04:12.812Z,4.53
2023-05-10T06:05:12.819Z,5.09
2023-05-10T06:06:12.774Z,5.80
2023-05-10T06:07:12.824Z,6.47
2023-05-10T06:08:12.774Z,6.33
2023-05-10T06:09:12.753Z,6.37
2023-05-10T06:10:12.743Z,6.48
2023-05-10T06:11:12.747Z,6.69
2023-05-10T06:12:12.750Z,7.09
2023-05-10T06:13:12.809Z,6.39
2023-05-10T06:14:12.686Z,6.59
2023-05-10T06:15:12.804Z,7.06
2023-05-10T06:16:12.744Z,7.82
2023-05-10T06:17:12.730Z,8.63
2023-05-10T06:18:12.694Z,9.25
2023-05-10T06:19:12.659Z,9.07
2023-05-10T06:20:12.652Z,9.10
2023-05-10T06:21:12.626Z,9.21
2023-05-10T06:22:12.656Z,9.39
2023-05-10T06:23:12.603Z,9.61
2023-05-10T06:24:12.603Z,9.13
2023-05-10T06:25:12.623Z,9.30
2023-05-10T06:26:12.560Z,9.77
2023-05-10T06:27:12.606Z,10.39
2023-05-10T06:28:12.624Z,11.25
2023-05-10T06:29:12.534Z,10.98
2023-05-10T06:30:13.665Z,11.20
2023-05-10T06:31:12.527Z,11.06
2023-05-10T06:32:12.501Z,11.08
2023-05-10T06:33:12.560Z,11.10
2023-05-10T06:34:12.474Z,11.13
2023-05-10T06:35:12.553Z,11.22
2023-05-10T06:36:12.547Z,11.65
2023-05-10T06:37:12.446Z,11.49
2023-05-10T06:38:12.419Z,11.20
2023-05-10T06:39:12.424Z,11.30
2023-05-10T06:40:12.464Z,11.81
2023-05-10T06:41:12.382Z,11.93
2023-05-10T06:42:12.425Z,11.26
2023-05-10T06:43:13.142Z,11.53
2023-05-10T06:44:12.328Z,11.52
2023-05-10T06:45:12.360Z,11.57
2023-05-10T06:46:12.359Z,10.90
2023-05-10T06:47:12.304Z,11.15
2023-05-10T06:48:12.343Z,11.70
2023-05-10T06:49:12.253Z,11.71
2023-05-10T06:50:12.462Z,11.40
2023-05-10T06:51:12.233Z,10.77
2023-05-10T06:52:12.247Z,9.75
2023-05-10T06:53:12.269Z,9.57
2023-05-10T06:54:12.211Z,8.37
2023-05-10T06:55:12.209Z,8.04
2023-05-10T06:56:12.166Z,7.98
2023-05-10T06:57:23.437Z,6.53
2023-05-10T06:58:13.128Z,6.50
2023-05-10T06:59:12.127Z,6.25
2023-05-10T07:00:12.194Z,5.85
2023-05-10T07:01:12.195Z,5.37
2023-05-10T07:02:12.254Z,5.15
2023-05-10T07:04:12.057Z,4.44
2023-05-10T07:05:12.077Z,4.24
2023-05-10T07:06:21.585Z,4.21
2023-05-10T07:07:13.020Z,4.11
2023-05-10T07:08:12.001Z,3.91
2023-05-10T07:09:11.994Z,3.72
2023-05-10T07:10:12.011Z,3.70
2023-05-10T07:11:11.949Z,3.72
2023-05-10T07:12:14.751Z,3.53
2023-05-10T07:13:12.006Z,3.70
2023-05-10T07:14:11.937Z,3.48
2023-05-10T07:15:11.935Z,3.29
2023-05-10T07:16:11.973Z,3.22
2023-05-10T07:17:11.949Z,3.16
2023-05-10T07:18:12.109Z,3.12
2023-05-10T07:19:11.877Z,3.31
2023-05-10T07:20:12.001Z,3.21
2023-05-10T07:22:11.852Z,3.00
2023-05-10T07:23:11.837Z,3.00
2023-05-10T07:24:11.845Z,3.01
2023-05-10T07:25:11.844Z,3.01
2023-05-10T07:26:11.831Z,3.02
2023-05-10T07:27:11.778Z,3.03
2023-05-10T07:28:11.790Z,2.89
2023-05-10T07:29:11.777Z,2.96
2023-05-10T07:30:12.195Z,2.91
2023-05-10T07:31:11.750Z,2.90
2023-05-10T07:32:11.759Z,2.91
2023-05-10T07:33:11.753Z,2.98
2023-05-10T07:34:11.696Z,2.94
2023-05-10T07:35:11.686Z,2.87
2023-05-10T07:37:11.662Z,2.85
2023-05-10T07:38:11.655Z,2.91
2023-05-10T07:39:16.239Z,3.18
2023-05-10T07:40:12.646Z,3.19
2023-05-10T07:41:11.627Z,3.21
2023-05-10T07:42:11.635Z,3.25
2023-05-10T07:43:11.614Z,3.32
2023-05-10T07:44:11.633Z,3.53
2023-05-10T07:45:11.601Z,3.56
2023-05-10T07:46:11.643Z,3.56
2023-05-10T07:47:11.565Z,3.68
2023-05-10T07:48:11.555Z,3.79
2023-05-10T07:49:11.610Z,3.79
2023-05-10T07:50:11.505Z,3.82
2023-05-10T07:51:11.518Z,3.88
2023-05-10T07:52:11.471Z,4.03
2023-05-10T07:53:11.441Z,4.14
2023-05-10T07:54:11.449Z,4.45
2023-05-10T07:55:11.408Z,4.39
2023-05-10T07:56:11.413Z,4.65
2023-05-10T07:57:11.443Z,4.68
2023-05-10T07:58:11.482Z,4.78
2023-05-10T07:59:12.784Z,4.97
2023-05-10T08:00:11.588Z,4.97
2023-05-10T08:01:11.652Z,5.25
2023-05-10T08:02:11.736Z,5.24
2023-05-10T08:03:11.839Z,5.44
2023-05-10T08:04:11.825Z,5.67
2023-05-10T08:05:12.202Z,5.62
2023-05-10T08:06:11.903Z,5.76
2023-05-10T08:07:11.867Z,5.77
2023-05-10T08:08:11.867Z,5.81
2023-05-10T08:09:11.865Z,5.90
2023-05-10T08:10:11.828Z,5.99
2023-05-10T08:11:11.794Z,6.22
2023-05-10T08:12:11.776Z,6.45
2023-05-10T08:13:11.737Z,6.46
2023-05-10T08:14:11.732Z,6.49
2023-05-10T08:15:11.735Z,6.55
2023-05-10T08:16:11.729Z,6.70
2023-05-10T08:17:11.730Z,6.99
2023-05-10T08:18:11.731Z,7.05
2023-05-10T08:19:11.785Z,7.25
2023-05-10T08:20:11.703Z,7.10
2023-05-10T08:21:11.632Z,7.11
2023-05-10T08:22:11.631Z,7.11
2023-05-10T08:23:11.610Z,7.19
2023-05-10T08:24:11.598Z,7.33
2023-05-10T08:25:11.576Z,7.53
2023-05-10T08:26:11.599Z,7.55
2023-05-10T08:27:11.599Z,7.69
2023-05-10T08:28:12.037Z,7.70
2023-05-10T08:29:11.580Z,7.73
2023-05-10T08:30:11.619Z,7.79
2023-05-10T08:31:11.578Z,7.81
2023-05-10T08:32:11.463Z,7.83
2023-05-10T08:33:11.423Z,7.77
2023-05-10T08:34:11.402Z,7.78
2023-05-10T08:35:11.411Z,7.78
2023-05-10T08:36:11.402Z,7.25
2023-05-10T08:37:11.359Z,7.08
2023-05-10T08:38:11.341Z,6.18
2023-05-10T08:39:22.917Z,6.06
2023-05-10T08:40:12.411Z,6.02
2023-05-10T08:41:11.314Z,5.62
2023-05-10T08:42:11.347Z,5.20
2023-05-10T08:43:11.316Z,4.39
2023-05-10T08:44:11.264Z,4.15
2023-05-10T08:45:11.327Z,3.89
2023-05-10T08:46:11.222Z,3.37
2023-05-10T08:47:11.293Z,3.39
2023-05-10T08:48:11.301Z,3.45
2023-05-10T08:49:11.190Z,3.55
2023-05-10T08:50:11.229Z,3.68
2023-05-10T08:51:11.154Z,3.94
2023-05-10T08:52:11.167Z,4.04
2023-05-10T08:53:11.141Z,3.43
2023-05-10T08:54:11.140Z,2.92
2023-05-10T08:55:11.196Z,2.82
2023-05-10T08:56:11.253Z,2.56
2023-05-10T08:57:11.326Z,2.33
2023-05-10T08:58:11.343Z,2.25
2023-05-10T08:59:11.346Z,2.12
2023-05-10T09:00:11.368Z,2.12
2023-05-10T09:01:11.453Z,2.32
2023-05-10T09:02:11.386Z,2.38
2023-05-10T09:03:11.457Z,2.41
2023-05-10T09:04:11.487Z,2.38
2023-05-10T09:05:11.491Z,2.38
2023-05-10T09:06:11.428Z,2.32
2023-05-10T09:07:11.436Z,2.22
2023-05-10T09:08:11.508Z,2.23
2023-05-10T09:09:11.486Z,2.19
2023-05-10T09:10:11.455Z,2.15
2023-05-10T09:11:11.512Z,2.11
2023-05-10T09:12:11.631Z,2.09
2023-05-10T09:13:11.650Z,2.05
2023-05-10T09:14:11.693Z,2.02
2023-05-10T09:15:11.781Z,2.01
2023-05-10T09:16:21.163Z,1.92
2023-05-10T09:17:12.918Z,1.92
2023-05-10T09:18:11.892Z,1.92
2023-05-10T09:19:11.899Z,1.88
2023-05-10T09:20:11.795Z,1.81
2023-05-10T09:21:11.834Z,1.74
2023-05-10T09:22:11.800Z,1.68
2023-05-10T09:23:11.762Z,1.68
2023-05-10T09:24:11.766Z,1.69
2023-05-10T09:25:11.781Z,1.64
2023-05-10T09:26:11.808Z,1.60
2023-05-10T09:27:11.934Z,1.59
2023-05-10T09:28:11.969Z,1.57
2023-05-10T09:29:11.911Z,1.52
2023-05-10T09:30:11.975Z,1.44
2023-05-10T09:31:12.063Z,1.46
2023-05-10T09:32:13.750Z,1.37
2023-05-10T09:33:12.078Z,1.44
2023-05-10T09:34:12.090Z,1.40
2023-05-10T09:35:12.135Z,1.00
2023-05-10T09:36:12.209Z,0.94
2023-05-10T09:37:12.141Z,0.92
2023-05-10T09:38:12.175Z,1.00
2023-05-10T09:39:12.207Z,1.05
2023-05-10T09:40:12.258Z,1.10
2023-05-10T09:41:12.313Z,1.30
2023-05-10T09:42:12.288Z,1.30
2023-05-10T09:43:12.280Z,1.33
2023-05-10T09:44:12.536Z,1.38
2023-05-10T09:45:12.243Z,1.50
2023-05-10T09:46:12.354Z,1.75
2023-05-10T09:47:12.241Z,1.87
2023-05-10T09:48:12.309Z,2.06
2023-05-10T09:49:12.183Z,2.08
2023-05-10T09:50:12.266Z,2.30
2023-05-10T09:51:12.264Z,2.40
2023-05-10T09:52:12.324Z,2.44
2023-05-10T09:53:12.375Z,2.58
2023-05-10T09:54:12.472Z,2.67
2023-05-10T09:55:12.522Z,2.85
2023-05-10T09:56:12.518Z,2.98
2023-05-10T09:57:12.584Z,3.15
2023-05-10T09:58:12.616Z,3.35
2023-05-10T09:59:12.680Z,3.40
2023-05-10T10:00:12.692Z,3.46
2023-05-10T10:01:12.775Z,3.56
2023-05-10T10:02:12.817Z,3.76
2023-05-10T10:03:12.891Z,3.91
2023-05-10T10:04:12.967Z,3.89
2023-05-10T10:05:12.976Z,3.96
2023-05-10T10:06:26.470Z,4.08
2023-05-10T10:07:13.925Z,4.09
2023-05-10T10:08:12.919Z,4.12
2023-05-10T10:09:12.935Z,4.19
2023-05-10T10:10:12.876Z,4.42
2023-05-10T10:11:12.869Z,4.78
2023-05-10T10:12:12.873Z,5.08
2023-05-10T10:13:12.842Z,5.20
2023-05-10T10:14:12.850Z,5.25
2023-05-10T10:15:14.070Z,5.51
2023-05-10T10:16:14.286Z,5.63
2023-05-10T10:17:12.781Z,5.86
2023-05-10T10:18:12.779Z,5.79
2023-05-10T10:19:12.749Z,5.81
2023-05-10T10:20:12.768Z,5.98
2023-05-10T10:21:12.736Z,5.94
2023-05-10T10:22:12.765Z,5.78
2023-05-10T10:23:13.191Z,5.89
2023-05-10T10:24:12.689Z,5.78
2023-05-10T10:25:12.653Z,5.82
2023-05-10T10:26:12.728Z,5.91
2023-05-10T10:27:12.660Z,6.02
2023-05-10T10:28:12.696Z,6.11
2023-05-10T10:29:12.667Z,6.12
2023-05-10T10:30:12.602Z,6.10
2023-05-10T10:31:12.638Z,6.26
2023-05-10T10:32:12.572Z,6.24
2023-05-10T10:33:20.569Z,5.96
2023-05-10T10:34:13.533Z,5.98
2023-05-10T10:35:12.507Z,6.00
2023-05-10T10:36:12.520Z,5.97
2023-05-10T10:37:12.505Z,5.29
2023-05-10T10:38:12.641Z,5.37
2023-05-10T10:39:12.451Z,5.35
2023-05-10T10:40:12.412Z,5.50
2023-05-10T10:41:12.444Z,5.58
2023-05-10T10:42:12.427Z,5.34
2023-05-10T10:43:12.414Z,5.24
2023-05-10T10:44:12.383Z,4.92
2023-05-10T10:45:12.419Z,4.44
2023-05-10T10:46:12.506Z,4.11
2023-05-10T10:47:12.662Z,4.12
2023-05-10T10:48:12.530Z,3.90
2023-05-10T10:49:12.602Z,3.08
2023-05-10T10:50:12.615Z,2.60
2023-05-10T10:51:12.963Z,2.09
2023-05-10T10:52:12.796Z,1.82
2023-05-10T10:53:12.816Z,1.63
2023-05-10T10:54:12.820Z,1.36
2023-05-10T10:55:12.868Z,1.23
2023-05-10T10:56:12.853Z,1.23
2023-05-10T10:57:12.856Z,1.17
2023-05-10T10:58:12.822Z,1.02
2023-05-10T10:59:12.801Z,0.97
2023-05-10T11:00:12.787Z,0.91
2023-05-10T11:01:12.864Z,0.89
2023-05-10T11:02:13.712Z,0.81
2023-05-10T11:03:12.791Z,0.75
2023-05-10T11:04:12.766Z,0.71
2023-05-10T11:05:12.727Z,0.70
2023-05-10T11:06:12.714Z,0.66
2023-05-10T11:07:12.783Z,0.63
2023-05-10T11:08:12.669Z,0.68
2023-05-10T11:09:12.682Z,0.76
2023-05-10T11:10:12.652Z,0.76
2023-05-10T11:11:12.643Z,0.79
2023-05-10T11:12:12.623Z,0.88
2023-05-10T11:13:12.614Z,1.14
2023-05-10T11:14:12.682Z,1.60
2023-05-10T11:15:13.619Z,1.76
2023-05-10T11:16:12.657Z,1.88
2023-05-10T11:17:12.635Z,1.95
2023-05-10T11:18:12.576Z,2.03
2023-05-10T11:19:12.573Z,2.03
2023-05-10T11:20:12.588Z,2.06
2023-05-10T11:21:14.249Z,2.15
2023-05-10T11:22:12.485Z,2.31
2023-05-10T11:23:12.517Z,2.57
2023-05-10T11:24:12.488Z,2.70
2023-05-10T11:25:13.220Z,2.71
2023-05-10T11:26:12.533Z,2.76
2023-05-10T11:27:12.461Z,2.83
2023-05-10T11:28:12.483Z,2.95
2023-05-10T11:29:12.427Z,3.11
2023-05-10T11:30:12.409Z,3.23
2023-05-10T11:31:12.476Z,3.36
2023-05-10T11:32:12.380Z,3.26
2023-05-10T11:33:12.366Z,3.38
2023-05-10T11:34:12.371Z,3.36
2023-05-10T11:35:12.337Z,3.30
2023-05-10T11:36:12.347Z,3.39
2023-05-10T11:37:12.353Z,3.37
2023-05-10T11:38:12.328Z,3.46
2023-05-10T11:39:12.336Z,3.30
2023-05-10T11:40:12.345Z,3.28
2023-05-10T11:41:12.312Z,3.31
2023-05-10T11:42:12.257Z,3.29
2023-05-10T11:43:12.229Z,3.32
2023-05-10T11:44:12.217Z,3.30
2023-05-10T11:45:12.203Z,3.25
2023-05-10T11:46:12.220Z,3.31
2023-05-10T11:47:12.156Z,3.31
2023-05-10T11:48:12.204Z,3.23
2023-05-10T11:49:12.141Z,3.27
2023-05-10T11:50:12.159Z,3.19
2023-05-10T11:51:12.127Z,3.22
2023-05-10T11:52:12.095Z,3.19
2023-05-10T11:53:12.135Z,3.23
2023-05-10T11:54:12.122Z,3.09
2023-05-10T11:55:12.064Z,3.27
2023-05-10T11:56:12.143Z,3.15
2023-05-10T11:57:12.046Z,3.13
2023-05-10T11:58:12.025Z,3.09
2023-05-10T11:59:12.016Z,3.04
2023-05-10T12:00:12.002Z,3.03
2023-05-10T12:01:11.990Z,3.02
2023-05-10T12:02:11.972Z,3.05
2023-05-10T12:03:12.008Z,3.09
2023-05-10T12:04:12.018Z,2.85
2023-05-10T12:05:11.996Z,2.92
2023-05-10T12:06:11.891Z,2.95
2023-05-10T12:07:11.873Z,2.92
2023-05-10T12:08:11.881Z,2.91
2023-05-10T12:09:12.758Z,2.87
2023-05-10T12:10:11.865Z,2.81
2023-05-10T12:11:12.045Z,2.81
2023-05-10T12:12:11.870Z,2.80
2023-05-10T12:13:11.850Z,2.89
2023-05-10T12:14:11.848Z,2.83
2023-05-10T12:15:11.846Z,2.75
2023-05-10T12:16:11.874Z,2.69
2023-05-10T12:17:11.853Z,2.71
2023-05-10T12:18:11.877Z,2.66
2023-05-10T12:19:11.951Z,2.69
2023-05-10T12:20:11.845Z,2.74
2023-05-10T12:21:11.851Z,2.65
2023-05-10T12:22:11.984Z,2.69
2023-05-10T12:23:11.896Z,2.56
2023-05-10T12:24:11.861Z,2.56
2023-05-10T12:25:11.934Z,2.55
2023-05-10T12:26:11.918Z,2.53
2023-05-10T12:27:11.859Z,2.55
2023-05-10T12:28:11.898Z,2.53
2023-05-10T12:29:11.880Z,2.46
2023-05-10T12:30:11.890Z,2.41
2023-05-10T12:31:11.914Z,2.45
2023-05-10T12:32:12.144Z,2.51
2023-05-10T12:33:11.955Z,2.51
2023-05-10T12:34:11.888Z,2.36
2023-05-10T12:35:11.856Z,2.51
2023-05-10T12:36:11.840Z,2.38
2023-05-10T12:37:11.824Z,2.46
2023-05-10T12:38:11.818Z,2.33
2023-05-10T12:39:11.837Z,2.33
2023-05-10T12:40:11.869Z,2.41
2023-05-10T12:41:11.854Z,2.28
2023-05-10T12:42:11.786Z,2.29
2023-05-10T12:43:11.776Z,2.29
2023-05-10T12:44:11.760Z,2.31
2023-05-10T12:45:11.751Z,2.25
2023-05-10T12:46:11.760Z,2.15
2023-05-10T12:47:11.742Z,2.17
2023-05-10T12:48:11.821Z,2.07
2023-05-10T12:49:11.745Z,2.13
2023-05-10T12:50:11.690Z,2.05
2023-05-10T12:51:11.670Z,2.13
2023-05-10T12:52:11.635Z,2.14
2023-05-10T12:53:11.628Z,2.15
2023-05-10T12:54:11.694Z,2.15
2023-05-10T12:55:11.621Z,2.13
2023-05-10T12:56:11.650Z,2.03
2023-05-10T12:57:11.598Z,2.04
2023-05-10T12:58:13.883Z,2.02
2023-05-10T12:59:12.553Z,2.02
2023-05-10T13:00:11.663Z,2.03
2023-05-10T13:01:11.698Z,2.04
2023-05-10T13:02:12.264Z,2.02
2023-05-10T13:03:11.569Z,2.04
2023-05-10T13:04:11.595Z,1.97
2023-05-10T13:05:11.626Z,1.97
2023-05-10T13:06:11.553Z,1.97
2023-05-10T13:07:11.659Z,1.98
2023-05-10T13:08:11.490Z,1.92
2023-05-10T13:09:11.517Z,1.99
2023-05-10T13:10:11.495Z,1.88
2023-05-10T13:11:11.474Z,1.90
2023-05-10T13:12:11.514Z,1.92
2023-05-10T13:13:11.430Z,1.94
2023-05-10T13:14:11.419Z,1.86
2023-05-10T13:15:11.461Z,1.86
2023-05-10T13:16:11.389Z,1.86
2023-05-10T13:17:11.512Z,1.88
2023-05-10T13:18:11.482Z,1.86
2023-05-10T13:19:11.423Z,1.87
2023-05-10T13:20:11.340Z,1.95